THY067 WADD-LTFM
Flight info
| Callsign | THY067 |
|---|---|
| Flight time | N/A |
| Altitude | 40000 |
| Route | KOLTA1L KOLTA G464 PNK N875 ESPIT/N0500F360 N875 BOBOB M761 VPK M751 VKB M626 BGO L507 TEBOV/N0495F380 L507 CEA R460 LKN R594 DPN A589 BUTOP M875 DI N644 DOBAT/N0493F400 N644 LEMOD A909 RODAR N644 ADEKI DCT BADIR DCT LAGAS DCT NOLGA UG261 TBN UM11 CRM UM688 EKSUK UL852 TIVUG UM10 HAKAN UN644 GUMRU UT315 NUGBA NUGBA1D |
| Aircraft | A359/H-SDE2E3GHIJ3J4J5LM1ORWXY/LB1D1 |
Departure
| Time | 2026-05-05 09:15 |
|---|---|
| Airport | Denpasar I Gusti Ngurah Rai International Airport (WADD) |
Arrival
| Time | N/A |
|---|---|
| Airport | İstanbul Airport (LTFM) |
| Time | Latitude | Longitude | Altitude | Speed | Heading |
|---|---|---|---|---|---|
| 2026-05-05 08:43 | -8.74543 | 115.16934 | 39 ft | 0 kts | 358° |
| 2026-05-05 09:03 | -8.74566 | 115.16935 | 39 ft | 3 kts | 358° |
| 2026-05-05 09:03 | -8.74571 | 115.16935 | 39 ft | 0 kts | 358° |
| 2026-05-05 09:05 | -8.74583 | 115.16935 | 39 ft | 2 kts | 358° |
| 2026-05-05 09:05 | -8.74600 | 115.16936 | 39 ft | 2 kts | 358° |
| 2026-05-05 09:06 | -8.74617 | 115.16937 | 39 ft | 2 kts | 358° |
| 2026-05-05 09:06 | -8.74634 | 115.16937 | 38 ft | 2 kts | 358° |
| 2026-05-05 09:06 | -8.74652 | 115.16939 | 36 ft | 3 kts | 330° |
| 2026-05-05 09:06 | -8.74667 | 115.16951 | 38 ft | 3 kts | 291° |
| 2026-05-05 09:07 | -8.74670 | 115.16960 | 38 ft | 0 kts | 271° |
| 2026-05-05 09:08 | -8.74670 | 115.16967 | 38 ft | 2 kts | 271° |
| 2026-05-05 09:08 | -8.74670 | 115.16975 | 38 ft | 0 kts | 271° |
| 2026-05-05 09:08 | -8.74672 | 115.16918 | 38 ft | 10 kts | 267° |
| 2026-05-05 09:09 | -8.74675 | 115.16843 | 38 ft | 11 kts | 268° |
| 2026-05-05 09:09 | -8.74677 | 115.16766 | 38 ft | 11 kts | 268° |
| 2026-05-05 09:09 | -8.74681 | 115.16686 | 38 ft | 12 kts | 267° |
| 2026-05-05 09:09 | -8.74684 | 115.16603 | 38 ft | 12 kts | 268° |
| 2026-05-05 09:10 | -8.74688 | 115.16518 | 38 ft | 12 kts | 267° |
| 2026-05-05 09:10 | -8.74692 | 115.16431 | 39 ft | 12 kts | 268° |
| 2026-05-05 09:10 | -8.74695 | 115.16343 | 39 ft | 13 kts | 268° |
| 2026-05-05 09:10 | -8.74699 | 115.16251 | 39 ft | 13 kts | 268° |
| 2026-05-05 09:11 | -8.74702 | 115.16157 | 39 ft | 14 kts | 268° |
| 2026-05-05 09:11 | -8.74705 | 115.16054 | 39 ft | 19 kts | 267° |
| 2026-05-05 09:11 | -8.74714 | 115.15863 | 39 ft | 35 kts | 267° |
| 2026-05-05 09:11 | -8.74721 | 115.15685 | 38 ft | 39 kts | 267° |
| 2026-05-05 09:12 | -8.74734 | 115.15443 | 38 ft | 26 kts | 257° |
| 2026-05-05 09:12 | -8.74787 | 115.15398 | 37 ft | 0 kts | 197° |
| 2026-05-05 09:12 | -8.74795 | 115.15396 | 37 ft | 0 kts | 196° |
| 2026-05-05 09:13 | -8.74799 | 115.15395 | 37 ft | 6 kts | 195° |
| 2026-05-05 09:13 | -8.74883 | 115.15451 | 35 ft | 17 kts | 95° |
| 2026-05-05 09:13 | -8.74891 | 115.15562 | 35 ft | 15 kts | 86° |
| 2026-05-05 09:13 | -8.74890 | 115.15581 | 35 ft | 0 kts | 87° |
| 2026-05-05 09:14 | -8.74890 | 115.15582 | 35 ft | 3 kts | 87° |
| 2026-05-05 09:14 | -8.74882 | 115.15805 | 34 ft | 66 kts | 88° |
| 2026-05-05 09:14 | -8.74850 | 115.16498 | 35 ft | 129 kts | 88° |
| 2026-05-05 09:14 | -8.74814 | 115.17593 | 94 ft | 179 kts | 90° |
| 2026-05-05 09:15 | -8.74716 | 115.18962 | 350 ft | 214 kts | 86° |
| 2026-05-05 09:15 | -8.74520 | 115.20600 | 618 ft | 250 kts | 85° |
| 2026-05-05 09:15 | -8.74467 | 115.22374 | 1608 ft | 255 kts | 90° |
| 2026-05-05 09:15 | -8.74453 | 115.24165 | 2298 ft | 253 kts | 90° |
| 2026-05-05 09:16 | -8.74419 | 115.25920 | 2995 ft | 250 kts | 90° |
| 2026-05-05 09:16 | -8.74370 | 115.27701 | 3446 ft | 256 kts | 89° |
| 2026-05-05 09:16 | -8.74309 | 115.29519 | 3922 ft | 260 kts | 89° |
| 2026-05-05 09:16 | -8.74242 | 115.31317 | 4473 ft | 261 kts | 88° |
| 2026-05-05 09:17 | -8.74170 | 115.33187 | 4945 ft | 266 kts | 88° |
| 2026-05-05 09:17 | -8.74095 | 115.35070 | 5387 ft | 270 kts | 88° |
| 2026-05-05 09:17 | -8.74019 | 115.36956 | 5866 ft | 273 kts | 87° |
| 2026-05-05 09:17 | -8.73941 | 115.38875 | 6404 ft | 274 kts | 87° |
| 2026-05-05 09:18 | -8.73862 | 115.40795 | 6913 ft | 275 kts | 88° |
| 2026-05-05 09:18 | -8.73591 | 115.42709 | 7405 ft | 278 kts | 74° |
| 2026-05-05 09:18 | -8.72755 | 115.44466 | 7950 ft | 279 kts | 54° |
| 2026-05-05 09:18 | -8.71301 | 115.45763 | 8474 ft | 284 kts | 30° |
| 2026-05-05 09:19 | -8.69378 | 115.46264 | 8916 ft | 294 kts | 360° |
| 2026-05-05 09:19 | -8.67402 | 115.45709 | 9343 ft | 303 kts | 330° |
| 2026-05-05 09:19 | -8.65627 | 115.44416 | 9893 ft | 305 kts | 323° |
| 2026-05-05 09:19 | -8.64010 | 115.43110 | 10239 ft | 313 kts | 322° |
| 2026-05-05 09:20 | -8.62273 | 115.41717 | 10463 ft | 326 kts | 323° |
| 2026-05-05 09:20 | -8.60451 | 115.40275 | 10654 ft | 339 kts | 323° |
| 2026-05-05 09:20 | -8.58668 | 115.38651 | 10826 ft | 352 kts | 311° |
| 2026-05-05 09:20 | -8.57343 | 115.36532 | 10994 ft | 364 kts | 292° |
| 2026-05-05 09:21 | -8.56356 | 115.34138 | 11146 ft | 375 kts | 300° |
| 2026-05-05 09:21 | -8.54712 | 115.32063 | 11348 ft | 384 kts | 315° |
| 2026-05-05 09:21 | -8.52811 | 115.30133 | 11643 ft | 388 kts | 315° |
| 2026-05-05 09:21 | -8.50900 | 115.28203 | 12057 ft | 391 kts | 315° |
| 2026-05-05 09:22 | -8.48994 | 115.26246 | 12498 ft | 391 kts | 314° |
| 2026-05-05 09:22 | -8.47094 | 115.24279 | 12902 ft | 393 kts | 314° |
| 2026-05-05 09:22 | -8.45168 | 115.22275 | 13164 ft | 399 kts | 314° |
| 2026-05-05 09:22 | -8.43237 | 115.20260 | 13611 ft | 400 kts | 313° |
| 2026-05-05 09:23 | -8.41295 | 115.18230 | 13861 ft | 405 kts | 313° |
| 2026-05-05 09:23 | -8.39335 | 115.16181 | 14242 ft | 405 kts | 314° |
| 2026-05-05 09:23 | -8.37443 | 115.14201 | 14658 ft | 404 kts | 313° |
| 2026-05-05 09:23 | -8.35429 | 115.12094 | 14971 ft | 406 kts | 314° |
| 2026-05-05 09:24 | -8.33502 | 115.10078 | 15377 ft | 405 kts | 314° |
| 2026-05-05 09:24 | -8.31534 | 115.08023 | 15679 ft | 408 kts | 313° |
| 2026-05-05 09:24 | -8.29555 | 115.05952 | 15941 ft | 410 kts | 313° |
| 2026-05-05 09:24 | -8.27570 | 115.03875 | 16235 ft | 413 kts | 313° |
| 2026-05-05 09:25 | -8.25568 | 115.01780 | 16494 ft | 416 kts | 314° |
| 2026-05-05 09:25 | -8.23562 | 114.99683 | 16904 ft | 414 kts | 314° |
| 2026-05-05 09:25 | -8.21557 | 114.97587 | 17236 ft | 416 kts | 314° |
| 2026-05-05 09:25 | -8.19543 | 114.95482 | 17557 ft | 418 kts | 314° |
| 2026-05-05 09:26 | -8.17518 | 114.93367 | 17847 ft | 420 kts | 314° |
| 2026-05-05 09:26 | -8.15486 | 114.91244 | 18128 ft | 422 kts | 314° |
| 2026-05-05 09:26 | -8.13441 | 114.89107 | 18399 ft | 424 kts | 314° |
| 2026-05-05 09:26 | -8.11390 | 114.86964 | 18612 ft | 426 kts | 314° |
| 2026-05-05 09:27 | -8.09327 | 114.84810 | 18873 ft | 427 kts | 314° |
| 2026-05-05 09:27 | -8.07258 | 114.82650 | 19136 ft | 429 kts | 314° |
| 2026-05-05 09:27 | -8.05181 | 114.80480 | 19400 ft | 430 kts | 314° |
| 2026-05-05 09:27 | -8.03100 | 114.78309 | 19676 ft | 431 kts | 314° |
| 2026-05-05 09:28 | -8.01012 | 114.76130 | 19866 ft | 434 kts | 314° |
| 2026-05-05 09:28 | -7.98909 | 114.73935 | 20117 ft | 435 kts | 314° |
| 2026-05-05 09:28 | -7.96800 | 114.71735 | 20329 ft | 437 kts | 314° |
| 2026-05-05 09:28 | -7.94683 | 114.69527 | 20571 ft | 439 kts | 314° |
| 2026-05-05 09:29 | -7.92555 | 114.67307 | 20827 ft | 440 kts | 314° |
| 2026-05-05 09:29 | -7.90328 | 114.65170 | 20982 ft | 444 kts | 321° |
| 2026-05-05 09:29 | -7.87748 | 114.63470 | 21276 ft | 443 kts | 331° |
| 2026-05-05 09:29 | -7.85031 | 114.61971 | 21471 ft | 446 kts | 332° |
| 2026-05-05 09:30 | -7.82285 | 114.60492 | 21672 ft | 448 kts | 332° |
| 2026-05-05 09:30 | -7.79533 | 114.59008 | 21982 ft | 448 kts | 332° |
| 2026-05-05 09:30 | -7.76782 | 114.57521 | 22185 ft | 450 kts | 332° |
| 2026-05-05 09:30 | -7.74011 | 114.56019 | 22409 ft | 453 kts | 332° |
| 2026-05-05 09:31 | -7.71234 | 114.54514 | 22661 ft | 454 kts | 332° |
| 2026-05-05 09:31 | -7.68489 | 114.53025 | 22947 ft | 454 kts | 332° |
| 2026-05-05 09:31 | -7.65695 | 114.51510 | 23139 ft | 457 kts | 332° |
| 2026-05-05 09:31 | -7.62887 | 114.49989 | 23369 ft | 459 kts | 332° |
| 2026-05-05 09:32 | -7.60070 | 114.48465 | 23591 ft | 460 kts | 332° |
| 2026-05-05 09:32 | -7.57246 | 114.46931 | 23775 ft | 462 kts | 332° |
| 2026-05-05 09:32 | -7.54405 | 114.45389 | 23921 ft | 465 kts | 332° |
| 2026-05-05 09:32 | -7.51561 | 114.43846 | 24165 ft | 465 kts | 332° |
| 2026-05-05 09:33 | -7.48727 | 114.42309 | 24417 ft | 465 kts | 332° |
| 2026-05-05 09:33 | -7.45860 | 114.40754 | 24608 ft | 468 kts | 332° |
| 2026-05-05 09:33 | -7.43004 | 114.39165 | 24809 ft | 469 kts | 330° |
| 2026-05-05 09:33 | -7.40185 | 114.37502 | 25088 ft | 469 kts | 330° |
| 2026-05-05 09:34 | -7.37368 | 114.35833 | 25318 ft | 471 kts | 330° |
| 2026-05-05 09:34 | -7.34529 | 114.34158 | 25529 ft | 473 kts | 330° |
| 2026-05-05 09:34 | -7.31683 | 114.32486 | 25776 ft | 474 kts | 330° |
| 2026-05-05 09:34 | -7.28830 | 114.30815 | 26058 ft | 475 kts | 330° |
| 2026-05-05 09:35 | -7.25966 | 114.29138 | 26279 ft | 478 kts | 331° |
| 2026-05-05 09:35 | -7.20181 | 114.25757 | 26772 ft | 482 kts | 331° |
| 2026-05-05 09:35 | -7.17276 | 114.24060 | 27038 ft | 483 kts | 330° |
| 2026-05-05 09:36 | -7.14362 | 114.22358 | 27273 ft | 486 kts | 331° |
| 2026-05-05 09:36 | -7.11434 | 114.20649 | 27551 ft | 487 kts | 331° |
| 2026-05-05 09:36 | -7.08496 | 114.18934 | 27885 ft | 488 kts | 330° |
| 2026-05-05 09:36 | -7.05552 | 114.17216 | 28084 ft | 490 kts | 331° |
| 2026-05-05 09:37 | -7.02591 | 114.15488 | 28319 ft | 493 kts | 331° |
| 2026-05-05 09:37 | -6.99626 | 114.13758 | 28604 ft | 494 kts | 330° |
| 2026-05-05 09:37 | -6.96651 | 114.12022 | 28876 ft | 495 kts | 331° |
| 2026-05-05 09:37 | -6.93659 | 114.10277 | 29067 ft | 498 kts | 331° |
| 2026-05-05 09:38 | -6.90657 | 114.08527 | 29284 ft | 500 kts | 331° |
| 2026-05-05 09:38 | -6.87637 | 114.06765 | 29534 ft | 501 kts | 331° |
| 2026-05-05 09:38 | -6.84614 | 114.05002 | 29765 ft | 503 kts | 331° |
| 2026-05-05 09:38 | -6.81577 | 114.03232 | 29931 ft | 506 kts | 331° |
| 2026-05-05 09:39 | -6.78536 | 114.01459 | 30159 ft | 506 kts | 331° |
| 2026-05-05 09:39 | -6.75490 | 113.99684 | 30369 ft | 507 kts | 331° |
| 2026-05-05 09:39 | -6.72435 | 113.97904 | 30540 ft | 508 kts | 331° |
| 2026-05-05 09:39 | -6.69373 | 113.96120 | 30733 ft | 509 kts | 331° |
| 2026-05-05 09:40 | -6.66349 | 113.94358 | 30946 ft | 509 kts | 331° |
| 2026-05-05 09:40 | -6.63286 | 113.92574 | 31120 ft | 510 kts | 331° |
| 2026-05-05 09:40 | -6.60207 | 113.90781 | 31256 ft | 511 kts | 331° |
| 2026-05-05 09:40 | -6.57129 | 113.88989 | 31486 ft | 510 kts | 331° |
| 2026-05-05 09:41 | -6.54040 | 113.87191 | 31792 ft | 508 kts | 331° |
| 2026-05-05 09:41 | -6.50976 | 113.85407 | 32056 ft | 507 kts | 332° |
| 2026-05-05 09:41 | -6.47969 | 113.83657 | 32301 ft | 505 kts | 331° |
| 2026-05-05 09:41 | -6.44926 | 113.81889 | 32556 ft | 504 kts | 331° |
| 2026-05-05 09:42 | -6.41892 | 113.80140 | 32809 ft | 502 kts | 332° |
| 2026-05-05 09:42 | -6.38864 | 113.78399 | 33058 ft | 501 kts | 331° |
| 2026-05-05 09:42 | -6.35846 | 113.76667 | 33284 ft | 499 kts | 331° |
| 2026-05-05 09:42 | -6.32832 | 113.74936 | 33471 ft | 499 kts | 331° |
| 2026-05-05 09:43 | -6.29827 | 113.73211 | 33740 ft | 497 kts | 332° |
| 2026-05-05 09:43 | -6.26827 | 113.71488 | 33845 ft | 496 kts | 331° |
| 2026-05-05 09:43 | -6.20803 | 113.68027 | 33824 ft | 501 kts | 332° |
| 2026-05-05 09:44 | -6.17780 | 113.66290 | 34003 ft | 500 kts | 331° |
| 2026-05-05 09:44 | -6.14763 | 113.64557 | 34194 ft | 499 kts | 331° |
| 2026-05-05 09:44 | -6.11759 | 113.62832 | 34346 ft | 498 kts | 332° |
| 2026-05-05 09:44 | -6.08747 | 113.61101 | 34513 ft | 497 kts | 332° |
| 2026-05-05 09:45 | -6.05750 | 113.59380 | 34682 ft | 496 kts | 332° |
| 2026-05-05 09:45 | -6.02758 | 113.57662 | 34806 ft | 496 kts | 331° |
| 2026-05-05 09:45 | -5.99843 | 113.55989 | 34926 ft | 495 kts | 331° |
| 2026-05-05 09:45 | -5.96852 | 113.54272 | 35097 ft | 494 kts | 331° |
| 2026-05-05 09:46 | -5.93875 | 113.52563 | 35239 ft | 493 kts | 331° |
| 2026-05-05 09:46 | -5.90890 | 113.50850 | 35339 ft | 493 kts | 332° |
| 2026-05-05 09:46 | -5.87914 | 113.49142 | 35440 ft | 493 kts | 332° |
| 2026-05-05 09:46 | -5.84975 | 113.47456 | 35600 ft | 492 kts | 332° |
| 2026-05-05 09:47 | -5.81966 | 113.45731 | 35722 ft | 491 kts | 331° |
| 2026-05-05 09:47 | -5.79039 | 113.44052 | 35808 ft | 491 kts | 332° |
| 2026-05-05 09:47 | -5.76078 | 113.42354 | 35938 ft | 490 kts | 332° |
| 2026-05-05 09:47 | -5.73118 | 113.40657 | 36068 ft | 490 kts | 332° |
| 2026-05-05 09:48 | -5.67198 | 113.37262 | 36238 ft | 489 kts | 331° |
| 2026-05-05 09:48 | -5.64246 | 113.35570 | 36395 ft | 488 kts | 331° |
| 2026-05-05 09:48 | -5.61298 | 113.33880 | 36498 ft | 487 kts | 332° |
| 2026-05-05 09:49 | -5.55397 | 113.30499 | 36486 ft | 491 kts | 332° |
| 2026-05-05 09:49 | -5.49451 | 113.27093 | 36638 ft | 491 kts | 332° |
| 2026-05-05 09:50 | -5.43527 | 113.23700 | 36827 ft | 490 kts | 332° |
| 2026-05-05 09:50 | -5.37611 | 113.20312 | 37013 ft | 489 kts | 332° |
| 2026-05-05 09:51 | -5.31710 | 113.16933 | 37165 ft | 488 kts | 332° |
| 2026-05-05 09:51 | -5.25813 | 113.13557 | 37300 ft | 488 kts | 332° |
| 2026-05-05 09:52 | -5.19901 | 113.10175 | 37268 ft | 491 kts | 332° |
| 2026-05-05 09:52 | -5.16941 | 113.08481 | 37383 ft | 489 kts | 332° |
| 2026-05-05 09:52 | -5.13982 | 113.06788 | 37465 ft | 489 kts | 331° |
| 2026-05-05 09:53 | -5.08079 | 113.03411 | 37592 ft | 488 kts | 332° |
| 2026-05-05 09:53 | -5.02182 | 113.00038 | 37690 ft | 488 kts | 332° |
| 2026-05-05 09:54 | -4.96288 | 112.96668 | 37813 ft | 487 kts | 332° |
| 2026-05-05 09:54 | -4.90444 | 112.93327 | 37872 ft | 487 kts | 331° |
| 2026-05-05 09:55 | -4.87482 | 112.91635 | 37731 ft | 492 kts | 332° |
| 2026-05-05 09:55 | -4.84504 | 112.89933 | 37666 ft | 494 kts | 331° |
| 2026-05-05 09:55 | -4.78549 | 112.86530 | 37826 ft | 492 kts | 331° |
| 2026-05-05 09:56 | -4.72600 | 112.83130 | 37916 ft | 492 kts | 331° |
| 2026-05-05 09:56 | -4.66661 | 112.79738 | 38015 ft | 491 kts | 331° |
| 2026-05-05 09:57 | -4.60723 | 112.76347 | 38059 ft | 492 kts | 331° |
| 2026-05-05 09:57 | -4.54781 | 112.72954 | 38136 ft | 491 kts | 332° |
| 2026-05-05 09:58 | -4.48839 | 112.69562 | 38178 ft | 491 kts | 331° |
| 2026-05-05 09:58 | -4.42899 | 112.66172 | 38253 ft | 491 kts | 332° |
| 2026-05-05 09:59 | -4.36956 | 112.62781 | 38285 ft | 491 kts | 331° |
| 2026-05-05 09:59 | -4.31022 | 112.59395 | 38325 ft | 491 kts | 332° |
| 2026-05-05 10:00 | -4.25121 | 112.56029 | 38397 ft | 491 kts | 332° |
| 2026-05-05 10:00 | -4.19185 | 112.52644 | 38365 ft | 492 kts | 331° |
| 2026-05-05 10:01 | -4.13225 | 112.49245 | 38368 ft | 493 kts | 331° |
| 2026-05-05 10:01 | -4.07267 | 112.45847 | 38424 ft | 493 kts | 331° |
| 2026-05-05 10:02 | -4.01293 | 112.42442 | 38333 ft | 495 kts | 331° |
| 2026-05-05 10:02 | -3.95309 | 112.39032 | 38420 ft | 494 kts | 331° |
| 2026-05-05 10:03 | -3.90341 | 112.36200 | 38462 ft | 494 kts | 331° |
| 2026-05-05 10:03 | -3.84365 | 112.32795 | 38498 ft | 494 kts | 331° |
| 2026-05-05 10:04 | -3.78387 | 112.29390 | 38513 ft | 494 kts | 331° |
| 2026-05-05 10:04 | -3.72419 | 112.25991 | 38563 ft | 494 kts | 331° |
| 2026-05-05 10:05 | -3.66433 | 112.22582 | 38567 ft | 494 kts | 331° |
| 2026-05-05 10:05 | -3.60467 | 112.19185 | 38601 ft | 494 kts | 331° |
| 2026-05-05 10:06 | -3.54490 | 112.15782 | 38634 ft | 494 kts | 331° |
| 2026-05-05 10:06 | -3.48522 | 112.12385 | 38655 ft | 494 kts | 331° |
| 2026-05-05 10:07 | -3.42538 | 112.08978 | 38601 ft | 495 kts | 331° |
| 2026-05-05 10:07 | -3.36547 | 112.05569 | 38648 ft | 495 kts | 331° |
| 2026-05-05 10:08 | -3.30559 | 112.02162 | 38671 ft | 495 kts | 331° |
| 2026-05-05 10:08 | -3.24576 | 111.98758 | 38694 ft | 495 kts | 331° |
| 2026-05-05 10:09 | -3.18593 | 111.95355 | 38727 ft | 494 kts | 331° |
| 2026-05-05 10:09 | -3.12615 | 111.91955 | 38739 ft | 494 kts | 331° |
| 2026-05-05 10:10 | -3.09620 | 111.90252 | 38553 ft | 496 kts | 331° |
| 2026-05-05 10:10 | -3.06624 | 111.88548 | 38283 ft | 495 kts | 331° |
| 2026-05-05 10:10 | -3.03622 | 111.86841 | 38016 ft | 496 kts | 331° |
| 2026-05-05 10:10 | -3.00631 | 111.85140 | 37868 ft | 495 kts | 331° |
| 2026-05-05 10:11 | -2.94668 | 111.81750 | 37859 ft | 497 kts | 331° |
| 2026-05-05 10:11 | -2.88656 | 111.78333 | 37857 ft | 497 kts | 331° |
| 2026-05-05 10:12 | -2.82641 | 111.74914 | 37864 ft | 498 kts | 331° |
| 2026-05-05 10:12 | -2.76644 | 111.71505 | 37862 ft | 494 kts | 331° |
| 2026-05-05 10:13 | -2.70875 | 111.67780 | 37862 ft | 494 kts | 321° |
| 2026-05-05 10:13 | -2.65654 | 111.63309 | 37865 ft | 494 kts | 319° |
| 2026-05-05 10:14 | -2.60528 | 111.58717 | 37860 ft | 495 kts | 319° |
| 2026-05-05 10:14 | -2.55410 | 111.54109 | 37862 ft | 495 kts | 319° |
| 2026-05-05 10:15 | -2.50285 | 111.49517 | 37859 ft | 495 kts | 319° |
| 2026-05-05 10:15 | -2.45151 | 111.44930 | 37861 ft | 495 kts | 319° |
| 2026-05-05 10:16 | -2.40008 | 111.40339 | 37862 ft | 496 kts | 319° |
| 2026-05-05 10:16 | -2.34863 | 111.35746 | 37862 ft | 496 kts | 319° |
| 2026-05-05 10:17 | -2.29708 | 111.31143 | 37862 ft | 496 kts | 319° |
| 2026-05-05 10:17 | -2.24560 | 111.26548 | 37865 ft | 496 kts | 319° |
| 2026-05-05 10:18 | -2.19445 | 111.21982 | 37864 ft | 496 kts | 319° |
| 2026-05-05 10:18 | -2.14293 | 111.17384 | 37865 ft | 496 kts | 319° |
| 2026-05-05 10:19 | -2.09145 | 111.12788 | 37865 ft | 496 kts | 319° |
| 2026-05-05 10:19 | -2.03995 | 111.08195 | 37865 ft | 497 kts | 319° |
| 2026-05-05 10:20 | -1.98843 | 111.03582 | 37870 ft | 497 kts | 319° |
| 2026-05-05 10:20 | -1.93699 | 110.98965 | 37869 ft | 497 kts | 319° |
| 2026-05-05 10:21 | -1.88556 | 110.94354 | 37871 ft | 497 kts | 319° |
| 2026-05-05 10:21 | -1.83604 | 110.89918 | 37871 ft | 497 kts | 319° |
| 2026-05-05 10:22 | -1.78458 | 110.85309 | 37804 ft | 498 kts | 319° |
| 2026-05-05 10:22 | -1.73296 | 110.80686 | 37850 ft | 499 kts | 319° |
| 2026-05-05 10:23 | -1.70715 | 110.78375 | 37964 ft | 496 kts | 319° |
| 2026-05-05 10:23 | -1.68159 | 110.76085 | 38107 ft | 495 kts | 319° |
| 2026-05-05 10:23 | -1.63026 | 110.71489 | 38131 ft | 495 kts | 319° |
| 2026-05-05 10:24 | -1.60452 | 110.69184 | 37924 ft | 496 kts | 319° |
| 2026-05-05 10:24 | -1.57889 | 110.66889 | 37866 ft | 495 kts | 319° |
| 2026-05-05 10:24 | -1.52754 | 110.62292 | 37866 ft | 496 kts | 319° |
| 2026-05-05 10:25 | -1.47616 | 110.57692 | 37868 ft | 496 kts | 319° |